sensor_id;sensor_type;location;lat;lon;timestamp;P1;durP1;ratioP1;P2;durP2;ratioP2
33022;SDS011;19390;51.460;5.710;2023-02-26T00:01:40;12.68;;;4.38;;
33022;SDS011;19390;51.460;5.710;2023-02-26T00:04:07;11.93;;;4.85;;
33022;SDS011;19390;51.460;5.710;2023-02-26T00:06:35;12.63;;;4.90;;
33022;SDS011;19390;51.460;5.710;2023-02-26T00:09:04;15.25;;;5.30;;
33022;SDS011;19390;51.460;5.710;2023-02-26T00:11:41;15.80;;;4.82;;
33022;SDS011;19390;51.460;5.710;2023-02-26T00:14:07;13.60;;;5.30;;
33022;SDS011;19390;51.460;5.710;2023-02-26T00:16:37;12.38;;;4.72;;
33022;SDS011;19390;51.460;5.710;2023-02-26T00:19:04;12.85;;;4.47;;
33022;SDS011;19390;51.460;5.710;2023-02-26T00:21:33;12.98;;;4.53;;
33022;SDS011;19390;51.460;5.710;2023-02-26T00:24:00;21.10;;;5.57;;
33022;SDS011;19390;51.460;5.710;2023-02-26T00:26:26;15.07;;;5.43;;
33022;SDS011;19390;51.460;5.710;2023-02-26T00:28:54;16.55;;;4.95;;
33022;SDS011;19390;51.460;5.710;2023-02-26T00:31:21;14.82;;;4.90;;
33022;SDS011;19390;51.460;5.710;2023-02-26T00:33:54;16.42;;;4.25;;
33022;SDS011;19390;51.460;5.710;2023-02-26T00:36:22;18.58;;;4.88;;
33022;SDS011;19390;51.460;5.710;2023-02-26T00:39:00;16.88;;;5.30;;
33022;SDS011;19390;51.460;5.710;2023-02-26T00:41:47;13.43;;;4.32;;
33022;SDS011;19390;51.460;5.710;2023-02-26T00:44:13;15.63;;;5.15;;
33022;SDS011;19390;51.460;5.710;2023-02-26T00:46:53;14.32;;;4.38;;
33022;SDS011;19390;51.460;5.710;2023-02-26T00:52:01;17.15;;;5.28;;
33022;SDS011;19390;51.460;5.710;2023-02-26T00:54:30;13.18;;;4.78;;
33022;SDS011;19390;51.460;5.710;2023-02-26T00:56:57;9.80;;;4.38;;
33022;SDS011;19390;51.460;5.710;2023-02-26T00:59:23;12.60;;;4.22;;
33022;SDS011;19390;51.460;5.710;2023-02-26T01:01:50;12.40;;;3.90;;
33022;SDS011;19390;51.460;5.710;2023-02-26T01:04:18;12.50;;;4.22;;
33022;SDS011;19390;51.460;5.710;2023-02-26T01:06:46;15.77;;;4.50;;
33022;SDS011;19390;51.460;5.710;2023-02-26T01:09:24;12.95;;;4.82;;
33022;SDS011;19390;51.460;5.710;2023-02-26T01:11:57;10.60;;;4.88;;
33022;SDS011;19390;51.460;5.710;2023-02-26T01:14:27;18.75;;;4.95;;
33022;SDS011;19390;51.460;5.710;2023-02-26T01:19:38;12.88;;;5.05;;
33022;SDS011;19390;51.460;5.710;2023-02-26T01:22:28;11.57;;;4.10;;
33022;SDS011;19390;51.460;5.710;2023-02-26T01:24:59;12.43;;;4.72;;
33022;SDS011;19390;51.460;5.710;2023-02-26T01:27:34;12.50;;;4.45;;
33022;SDS011;19390;51.460;5.710;2023-02-26T01:30:00;14.30;;;4.50;;
33022;SDS011;19390;51.460;5.710;2023-02-26T01:32:45;13.80;;;3.95;;
33022;SDS011;19390;51.460;5.710;2023-02-26T01:48:58;10.30;;;3.60;;
33022;SDS011;19390;51.460;5.710;2023-02-26T01:54:06;18.13;;;3.95;;
33022;SDS011;19390;51.460;5.710;2023-02-26T01:56:31;10.65;;;3.35;;
33022;SDS011;19390;51.460;5.710;2023-02-26T01:58:58;11.05;;;3.63;;
33022;SDS011;19390;51.460;5.710;2023-02-26T02:01:24;13.07;;;3.60;;
33022;SDS011;19390;51.460;5.710;2023-02-26T02:03:50;10.05;;;3.88;;
33022;SDS011;19390;51.460;5.710;2023-02-26T02:06:18;11.38;;;3.50;;
33022;SDS011;19390;51.460;5.710;2023-02-26T02:08:47;13.90;;;3.63;;
33022;SDS011;19390;51.460;5.710;2023-02-26T02:11:13;20.25;;;4.35;;
33022;SDS011;19390;51.460;5.710;2023-02-26T02:13:40;12.18;;;3.30;;
33022;SDS011;19390;51.460;5.710;2023-02-26T02:16:18;11.20;;;3.30;;
33022;SDS011;19390;51.460;5.710;2023-02-26T02:18:59;14.05;;;3.28;;
33022;SDS011;19390;51.460;5.710;2023-02-26T02:32:52;14.07;;;3.55;;
33022;SDS011;19390;51.460;5.710;2023-02-26T02:38:18;15.27;;;3.85;;
33022;SDS011;19390;51.460;5.710;2023-02-26T02:40:48;12.82;;;3.78;;
33022;SDS011;19390;51.460;5.710;2023-02-26T02:43:31;14.80;;;3.42;;
33022;SDS011;19390;51.460;5.710;2023-02-26T02:46:07;11.18;;;3.28;;
33022;SDS011;19390;51.460;5.710;2023-02-26T02:48:45;16.27;;;3.28;;
33022;SDS011;19390;51.460;5.710;2023-02-26T02:53:55;9.43;;;2.42;;
33022;SDS011;19390;51.460;5.710;2023-02-26T02:56:39;12.10;;;3.33;;
33022;SDS011;19390;51.460;5.710;2023-02-26T02:59:21;10.25;;;3.75;;
33022;SDS011;19390;51.460;5.710;2023-02-26T03:01:57;10.47;;;3.13;;
33022;SDS011;19390;51.460;5.710;2023-02-26T03:04:28;9.32;;;2.53;;
33022;SDS011;19390;51.460;5.710;2023-02-26T03:06:54;10.77;;;3.22;;
33022;SDS011;19390;51.460;5.710;2023-02-26T03:09:20;9.90;;;2.97;;
33022;SDS011;19390;51.460;5.710;2023-02-26T03:11:46;8.57;;;2.53;;
33022;SDS011;19390;51.460;5.710;2023-02-26T03:14:12;5.80;;;2.42;;
33022;SDS011;19390;51.460;5.710;2023-02-26T03:22:11;10.07;;;2.95;;
33022;SDS011;19390;51.460;5.710;2023-02-26T03:25:32;10.10;;;2.83;;
33022;SDS011;19390;51.460;5.710;2023-02-26T03:30:25;10.45;;;2.85;;
33022;SDS011;19390;51.460;5.710;2023-02-26T03:41:28;9.55;;;2.42;;
33022;SDS011;19390;51.460;5.710;2023-02-26T03:44:13;5.95;;;1.77;;
33022;SDS011;19390;51.460;5.710;2023-02-26T03:46:49;5.88;;;2.35;;
33022;SDS011;19390;51.460;5.710;2023-02-26T03:49:20;6.25;;;1.90;;
33022;SDS011;19390;51.460;5.710;2023-02-26T03:51:51;5.65;;;1.90;;
33022;SDS011;19390;51.460;5.710;2023-02-26T03:54:23;15.23;;;3.00;;
33022;SDS011;19390;51.460;5.710;2023-02-26T03:57:10;10.98;;;2.42;;
33022;SDS011;19390;51.460;5.710;2023-02-26T03:59:36;7.35;;;2.38;;
33022;SDS011;19390;51.460;5.710;2023-02-26T04:02:04;9.35;;;2.03;;
33022;SDS011;19390;51.460;5.710;2023-02-26T04:07:09;10.13;;;2.22;;
33022;SDS011;19390;51.460;5.710;2023-02-26T04:09:39;5.97;;;2.00;;
33022;SDS011;19390;51.460;5.710;2023-02-26T04:12:06;11.52;;;3.22;;
33022;SDS011;19390;51.460;5.710;2023-02-26T04:14:32;7.80;;;1.92;;
33022;SDS011;19390;51.460;5.710;2023-02-26T04:16:58;8.95;;;2.30;;
33022;SDS011;19390;51.460;5.710;2023-02-26T04:19:24;7.95;;;1.70;;
33022;SDS011;19390;51.460;5.710;2023-02-26T04:21:50;10.15;;;1.70;;
33022;SDS011;19390;51.460;5.710;2023-02-26T04:24:16;9.38;;;1.92;;
33022;SDS011;19390;51.460;5.710;2023-02-26T04:26:42;3.67;;;1.45;;
33022;SDS011;19390;51.460;5.710;2023-02-26T04:29:08;7.43;;;1.90;;
33022;SDS011;19390;51.460;5.710;2023-02-26T04:31:34;9.15;;;1.63;;
33022;SDS011;19390;51.460;5.710;2023-02-26T04:34:00;8.90;;;2.35;;
33022;SDS011;19390;51.460;5.710;2023-02-26T04:36:26;5.80;;;1.90;;
33022;SDS011;19390;51.460;5.710;2023-02-26T04:38:51;8.50;;;2.05;;
33022;SDS011;19390;51.460;5.710;2023-02-26T04:41:17;12.25;;;1.83;;
33022;SDS011;19390;51.460;5.710;2023-02-26T04:43:43;5.70;;;1.75;;
33022;SDS011;19390;51.460;5.710;2023-02-26T04:46:09;10.70;;;1.80;;
33022;SDS011;19390;51.460;5.710;2023-02-26T04:48:35;5.13;;;2.30;;
33022;SDS011;19390;51.460;5.710;2023-02-26T04:51:01;7.00;;;1.77;;
33022;SDS011;19390;51.460;5.710;2023-02-26T04:53:27;10.25;;;1.95;;
33022;SDS011;19390;51.460;5.710;2023-02-26T04:55:52;6.82;;;2.03;;
33022;SDS011;19390;51.460;5.710;2023-02-26T04:58:18;8.65;;;1.83;;
33022;SDS011;19390;51.460;5.710;2023-02-26T05:00:47;8.27;;;1.88;;
33022;SDS011;19390;51.460;5.710;2023-02-26T05:03:13;9.95;;;1.77;;
33022;SDS011;19390;51.460;5.710;2023-02-26T05:05:39;7.70;;;1.95;;
33022;SDS011;19390;51.460;5.710;2023-02-26T05:08:05;11.73;;;2.50;;
33022;SDS011;19390;51.460;5.710;2023-02-26T05:10:31;9.80;;;2.03;;
33022;SDS011;19390;51.460;5.710;2023-02-26T05:12:57;5.72;;;1.40;;
33022;SDS011;19390;51.460;5.710;2023-02-26T05:15:23;11.55;;;2.38;;
33022;SDS011;19390;51.460;5.710;2023-02-26T05:17:49;6.38;;;1.98;;
33022;SDS011;19390;51.460;5.710;2023-02-26T05:20:14;6.65;;;1.65;;
33022;SDS011;19390;51.460;5.710;2023-02-26T05:22:41;8.85;;;1.88;;
33022;SDS011;19390;51.460;5.710;2023-02-26T05:25:07;8.05;;;2.10;;
33022;SDS011;19390;51.460;5.710;2023-02-26T05:27:35;11.25;;;2.35;;
33022;SDS011;19390;51.460;5.710;2023-02-26T05:30:02;8.77;;;2.47;;
33022;SDS011;19390;51.460;5.710;2023-02-26T05:32:28;14.80;;;2.50;;
33022;SDS011;19390;51.460;5.710;2023-02-26T05:34:54;7.93;;;1.85;;
33022;SDS011;19390;51.460;5.710;2023-02-26T05:37:20;8.48;;;2.78;;
33022;SDS011;19390;51.460;5.710;2023-02-26T05:39:46;6.47;;;1.70;;
33022;SDS011;19390;51.460;5.710;2023-02-26T05:42:12;5.93;;;1.63;;
33022;SDS011;19390;51.460;5.710;2023-02-26T05:44:37;6.85;;;2.38;;
33022;SDS011;19390;51.460;5.710;2023-02-26T05:47:03;11.90;;;2.28;;
33022;SDS011;19390;51.460;5.710;2023-02-26T05:49:29;9.55;;;2.00;;
33022;SDS011;19390;51.460;5.710;2023-02-26T05:51:55;4.38;;;1.30;;
33022;SDS011;19390;51.460;5.710;2023-02-26T05:54:21;4.90;;;1.75;;
33022;SDS011;19390;51.460;5.710;2023-02-26T05:56:47;7.97;;;1.60;;
33022;SDS011;19390;51.460;5.710;2023-02-26T05:59:13;10.55;;;1.63;;
33022;SDS011;19390;51.460;5.710;2023-02-26T06:01:39;11.52;;;1.63;;
33022;SDS011;19390;51.460;5.710;2023-02-26T06:04:06;6.43;;;1.42;;
33022;SDS011;19390;51.460;5.710;2023-02-26T06:06:32;6.00;;;1.38;;
33022;SDS011;19390;51.460;5.710;2023-02-26T06:08:59;9.38;;;1.77;;
33022;SDS011;19390;51.460;5.710;2023-02-26T06:11:27;10.15;;;1.50;;
33022;SDS011;19390;51.460;5.710;2023-02-26T06:13:54;8.63;;;1.60;;
33022;SDS011;19390;51.460;5.710;2023-02-26T06:16:20;9.10;;;1.60;;
33022;SDS011;19390;51.460;5.710;2023-02-26T06:18:46;12.25;;;2.20;;
33022;SDS011;19390;51.460;5.710;2023-02-26T06:21:12;10.27;;;1.60;;
33022;SDS011;19390;51.460;5.710;2023-02-26T06:23:38;11.88;;;2.42;;
33022;SDS011;19390;51.460;5.710;2023-02-26T06:26:05;8.52;;;1.60;;
33022;SDS011;19390;51.460;5.710;2023-02-26T06:28:31;15.82;;;1.60;;
33022;SDS011;19390;51.460;5.710;2023-02-26T06:30:57;6.22;;;1.33;;
33022;SDS011;19390;51.460;5.710;2023-02-26T06:33:23;12.85;;;1.33;;
33022;SDS011;19390;51.460;5.710;2023-02-26T06:35:49;7.32;;;1.85;;
33022;SDS011;19390;51.460;5.710;2023-02-26T06:38:15;7.03;;;1.60;;
33022;SDS011;19390;51.460;5.710;2023-02-26T06:40:41;10.55;;;2.25;;
33022;SDS011;19390;51.460;5.710;2023-02-26T06:43:07;5.00;;;1.35;;
33022;SDS011;19390;51.460;5.710;2023-02-26T06:45:33;4.35;;;1.67;;
33022;SDS011;19390;51.460;5.710;2023-02-26T06:48:00;6.03;;;1.38;;
33022;SDS011;19390;51.460;5.710;2023-02-26T06:50:26;22.02;;;3.63;;
33022;SDS011;19390;51.460;5.710;2023-02-26T06:52:52;9.45;;;1.67;;
33022;SDS011;19390;51.460;5.710;2023-02-26T06:55:18;6.72;;;1.42;;
33022;SDS011;19390;51.460;5.710;2023-02-26T06:57:45;3.92;;;1.17;;
33022;SDS011;19390;51.460;5.710;2023-02-26T07:00:12;10.85;;;1.77;;
33022;SDS011;19390;51.460;5.710;2023-02-26T07:02:38;9.52;;;1.27;;
33022;SDS011;19390;51.460;5.710;2023-02-26T07:05:04;6.68;;;1.38;;
33022;SDS011;19390;51.460;5.710;2023-02-26T07:07:31;8.98;;;1.67;;
33022;SDS011;19390;51.460;5.710;2023-02-26T07:09:56;8.48;;;1.20;;
33022;SDS011;19390;51.460;5.710;2023-02-26T07:12:22;7.30;;;1.20;;
33022;SDS011;19390;51.460;5.710;2023-02-26T07:14:48;4.90;;;0.95;;
33022;SDS011;19390;51.460;5.710;2023-02-26T07:17:14;5.03;;;1.45;;
33022;SDS011;19390;51.460;5.710;2023-02-26T07:19:47;7.22;;;1.10;;
33022;SDS011;19390;51.460;5.710;2023-02-26T07:22:15;6.75;;;1.42;;
33022;SDS011;19390;51.460;5.710;2023-02-26T07:24:42;4.57;;;1.17;;
33022;SDS011;19390;51.460;5.710;2023-02-26T07:27:08;3.53;;;1.15;;
33022;SDS011;19390;51.460;5.710;2023-02-26T07:29:35;6.75;;;1.60;;
33022;SDS011;19390;51.460;5.710;2023-02-26T07:32:01;6.68;;;1.52;;
33022;SDS011;19390;51.460;5.710;2023-02-26T07:34:29;6.10;;;1.08;;
33022;SDS011;19390;51.460;5.710;2023-02-26T07:36:56;4.70;;;1.10;;
33022;SDS011;19390;51.460;5.710;2023-02-26T07:39:23;8.07;;;1.13;;
33022;SDS011;19390;51.460;5.710;2023-02-26T07:41:50;5.05;;;1.10;;
33022;SDS011;19390;51.460;5.710;2023-02-26T07:44:16;4.25;;;1.10;;
33022;SDS011;19390;51.460;5.710;2023-02-26T07:46:42;4.05;;;1.08;;
33022;SDS011;19390;51.460;5.710;2023-02-26T07:49:08;5.47;;;1.20;;
33022;SDS011;19390;51.460;5.710;2023-02-26T07:51:34;3.15;;;0.90;;
33022;SDS011;19390;51.460;5.710;2023-02-26T07:54:00;4.82;;;1.20;;
33022;SDS011;19390;51.460;5.710;2023-02-26T07:56:27;3.42;;;1.00;;
33022;SDS011;19390;51.460;5.710;2023-02-26T07:58:52;6.70;;;1.65;;
33022;SDS011;19390;51.460;5.710;2023-02-26T08:01:18;5.43;;;0.82;;
33022;SDS011;19390;51.460;5.710;2023-02-26T08:03:44;4.65;;;1.10;;
33022;SDS011;19390;51.460;5.710;2023-02-26T08:06:09;3.45;;;1.15;;
33022;SDS011;19390;51.460;5.710;2023-02-26T08:08:36;5.45;;;1.08;;
33022;SDS011;19390;51.460;5.710;2023-02-26T08:11:01;2.70;;;1.00;;
33022;SDS011;19390;51.460;5.710;2023-02-26T08:13:27;4.00;;;0.88;;
33022;SDS011;19390;51.460;5.710;2023-02-26T08:15:53;4.82;;;1.20;;
33022;SDS011;19390;51.460;5.710;2023-02-26T08:18:19;7.05;;;1.00;;
33022;SDS011;19390;51.460;5.710;2023-02-26T08:20:45;4.38;;;1.15;;
33022;SDS011;19390;51.460;5.710;2023-02-26T08:23:11;5.15;;;1.10;;
33022;SDS011;19390;51.460;5.710;2023-02-26T08:25:37;7.22;;;1.27;;
33022;SDS011;19390;51.460;5.710;2023-02-26T08:28:04;5.15;;;1.40;;
33022;SDS011;19390;51.460;5.710;2023-02-26T08:30:30;4.47;;;1.13;;
33022;SDS011;19390;51.460;5.710;2023-02-26T08:32:55;4.07;;;0.88;;
33022;SDS011;19390;51.460;5.710;2023-02-26T08:35:21;5.43;;;0.98;;
33022;SDS011;19390;51.460;5.710;2023-02-26T08:37:47;4.40;;;0.90;;
33022;SDS011;19390;51.460;5.710;2023-02-26T08:40:14;4.43;;;0.85;;
33022;SDS011;19390;51.460;5.710;2023-02-26T08:42:39;6.22;;;0.70;;
33022;SDS011;19390;51.460;5.710;2023-02-26T08:45:06;3.28;;;1.20;;
33022;SDS011;19390;51.460;5.710;2023-02-26T08:47:32;5.63;;;0.95;;
33022;SDS011;19390;51.460;5.710;2023-02-26T08:49:58;5.95;;;1.00;;
33022;SDS011;19390;51.460;5.710;2023-02-26T08:52:24;4.93;;;1.30;;
33022;SDS011;19390;51.460;5.710;2023-02-26T08:54:51;4.40;;;1.10;;
33022;SDS011;19390;51.460;5.710;2023-02-26T08:57:16;4.50;;;0.95;;
33022;SDS011;19390;51.460;5.710;2023-02-26T08:59:42;3.97;;;0.90;;
33022;SDS011;19390;51.460;5.710;2023-02-26T09:02:11;5.95;;;1.20;;
33022;SDS011;19390;51.460;5.710;2023-02-26T09:04:37;8.25;;;1.08;;
33022;SDS011;19390;51.460;5.710;2023-02-26T09:07:03;3.88;;;1.10;;
33022;SDS011;19390;51.460;5.710;2023-02-26T09:09:29;3.45;;;0.73;;
33022;SDS011;19390;51.460;5.710;2023-02-26T09:11:55;5.20;;;0.90;;
33022;SDS011;19390;51.460;5.710;2023-02-26T09:14:21;6.15;;;0.95;;
33022;SDS011;19390;51.460;5.710;2023-02-26T09:16:46;3.17;;;0.88;;
33022;SDS011;19390;51.460;5.710;2023-02-26T09:19:12;6.07;;;0.93;;
33022;SDS011;19390;51.460;5.710;2023-02-26T09:21:38;4.18;;;1.55;;
33022;SDS011;19390;51.460;5.710;2023-02-26T09:24:03;3.15;;;0.80;;
33022;SDS011;19390;51.460;5.710;2023-02-26T09:26:29;3.97;;;0.98;;
33022;SDS011;19390;51.460;5.710;2023-02-26T09:28:55;4.00;;;0.95;;
33022;SDS011;19390;51.460;5.710;2023-02-26T09:31:21;4.20;;;0.80;;
33022;SDS011;19390;51.460;5.710;2023-02-26T09:33:46;2.83;;;0.88;;
33022;SDS011;19390;51.460;5.710;2023-02-26T09:36:12;2.42;;;0.88;;
33022;SDS011;19390;51.460;5.710;2023-02-26T09:38:38;4.97;;;1.17;;
33022;SDS011;19390;51.460;5.710;2023-02-26T09:41:06;4.63;;;0.98;;
33022;SDS011;19390;51.460;5.710;2023-02-26T09:46:40;5.30;;;0.70;;
33022;SDS011;19390;51.460;5.710;2023-02-26T09:52:00;6.97;;;1.00;;
33022;SDS011;19390;51.460;5.710;2023-02-26T09:54:48;2.05;;;0.60;;
33022;SDS011;19390;51.460;5.710;2023-02-26T09:59:56;7.82;;;1.00;;
33022;SDS011;19390;51.460;5.710;2023-02-26T10:02:37;3.05;;;1.00;;
33022;SDS011;19390;51.460;5.710;2023-02-26T10:07:59;3.75;;;0.85;;
33022;SDS011;19390;51.460;5.710;2023-02-26T10:10:34;6.00;;;0.77;;
33022;SDS011;19390;51.460;5.710;2023-02-26T10:13:27;4.75;;;0.73;;
33022;SDS011;19390;51.460;5.710;2023-02-26T10:16:04;3.35;;;1.50;;
33022;SDS011;19390;51.460;5.710;2023-02-26T10:18:36;3.80;;;1.08;;
33022;SDS011;19390;51.460;5.710;2023-02-26T10:21:10;3.25;;;0.60;;
33022;SDS011;19390;51.460;5.710;2023-02-26T10:24:38;3.15;;;0.57;;
33022;SDS011;19390;51.460;5.710;2023-02-26T10:27:08;2.83;;;0.70;;
33022;SDS011;19390;51.460;5.710;2023-02-26T10:29:51;2.53;;;0.50;;
33022;SDS011;19390;51.460;5.710;2023-02-26T10:32:25;4.65;;;0.80;;
33022;SDS011;19390;51.460;5.710;2023-02-26T10:35:06;2.95;;;0.50;;
33022;SDS011;19390;51.460;5.710;2023-02-26T10:48:24;4.97;;;0.63;;
33022;SDS011;19390;51.460;5.710;2023-02-26T10:51:18;3.88;;;0.50;;
33022;SDS011;19390;51.460;5.710;2023-02-26T10:53:53;2.28;;;0.50;;
33022;SDS011;19390;51.460;5.710;2023-02-26T10:56:31;2.20;;;0.50;;
33022;SDS011;19390;51.460;5.710;2023-02-26T10:58:58;4.68;;;0.82;;
33022;SDS011;19390;51.460;5.710;2023-02-26T11:01:24;5.97;;;0.75;;
33022;SDS011;19390;51.460;5.710;2023-02-26T11:03:59;1.08;;;0.35;;
33022;SDS011;19390;51.460;5.710;2023-02-26T11:06:33;3.72;;;0.90;;
33022;SDS011;19390;51.460;5.710;2023-02-26T11:09:03;1.67;;;0.40;;
33022;SDS011;19390;51.460;5.710;2023-02-26T11:11:42;5.65;;;0.68;;
33022;SDS011;19390;51.460;5.710;2023-02-26T11:14:11;5.32;;;0.60;;
33022;SDS011;19390;51.460;5.710;2023-02-26T11:16:46;3.03;;;0.40;;
33022;SDS011;19390;51.460;5.710;2023-02-26T11:19:27;3.10;;;0.45;;
33022;SDS011;19390;51.460;5.710;2023-02-26T11:22:04;2.47;;;0.85;;
33022;SDS011;19390;51.460;5.710;2023-02-26T11:24:40;2.83;;;1.02;;
33022;SDS011;19390;51.460;5.710;2023-02-26T11:27:18;2.35;;;0.52;;
33022;SDS011;19390;51.460;5.710;2023-02-26T11:32:42;1.27;;;0.60;;
33022;SDS011;19390;51.460;5.710;2023-02-26T11:35:13;2.63;;;0.98;;
33022;SDS011;19390;51.460;5.710;2023-02-26T11:37:44;3.33;;;0.70;;
33022;SDS011;19390;51.460;5.710;2023-02-26T11:40:33;3.10;;;1.33;;
33022;SDS011;19390;51.460;5.710;2023-02-26T11:43:04;2.95;;;0.50;;
33022;SDS011;19390;51.460;5.710;2023-02-26T11:45:33;3.58;;;0.63;;
33022;SDS011;19390;51.460;5.710;2023-02-26T11:48:05;2.33;;;0.60;;
33022;SDS011;19390;51.460;5.710;2023-02-26T11:50:43;1.83;;;0.50;;
33022;SDS011;19390;51.460;5.710;2023-02-26T11:53:18;2.17;;;1.58;;
33022;SDS011;19390;51.460;5.710;2023-02-26T11:55:57;2.38;;;0.68;;
33022;SDS011;19390;51.460;5.710;2023-02-26T11:58:27;3.80;;;0.82;;
33022;SDS011;19390;51.460;5.710;2023-02-26T12:00:56;1.80;;;0.50;;
33022;SDS011;19390;51.460;5.710;2023-02-26T12:03:27;2.80;;;0.65;;
33022;SDS011;19390;51.460;5.710;2023-02-26T12:05:57;3.53;;;0.70;;
33022;SDS011;19390;51.460;5.710;2023-02-26T12:20:01;2.40;;;0.65;;
33022;SDS011;19390;51.460;5.710;2023-02-26T12:43:58;3.42;;;0.52;;
33022;SDS011;19390;51.460;5.710;2023-02-26T12:46:48;1.88;;;0.60;;
33022;SDS011;19390;51.460;5.710;2023-02-26T12:55:21;2.00;;;0.52;;
33022;SDS011;19390;51.460;5.710;2023-02-26T13:19:44;0.70;;;0.38;;
33022;SDS011;19390;51.460;5.710;2023-02-26T13:22:36;1.85;;;0.30;;
33022;SDS011;19390;51.460;5.710;2023-02-26T13:25:13;1.42;;;0.52;;
33022;SDS011;19390;51.460;5.710;2023-02-26T13:27:47;2.53;;;0.68;;
33022;SDS011;19390;51.460;5.710;2023-02-26T13:30:17;2.13;;;0.70;;
33022;SDS011;19390;51.460;5.710;2023-02-26T13:32:55;4.57;;;0.77;;
33022;SDS011;19390;51.460;5.710;2023-02-26T13:35:36;1.13;;;0.43;;
33022;SDS011;19390;51.460;5.710;2023-02-26T13:39:11;3.53;;;0.80;;
33022;SDS011;19390;51.460;5.710;2023-02-26T13:52:48;1.70;;;0.52;;
33022;SDS011;19390;51.460;5.710;2023-02-26T13:55:40;4.22;;;0.90;;
33022;SDS011;19390;51.460;5.710;2023-02-26T13:58:17;3.25;;;0.70;;
33022;SDS011;19390;51.460;5.710;2023-02-26T14:06:23;0.98;;;0.40;;
33022;SDS011;19390;51.460;5.710;2023-02-26T14:14:35;5.28;;;0.68;;
33022;SDS011;19390;51.460;5.710;2023-02-26T14:19:37;2.42;;;0.47;;
33022;SDS011;19390;51.460;5.710;2023-02-26T14:24:59;2.63;;;0.70;;
33022;SDS011;19390;51.460;5.710;2023-02-26T14:27:36;2.90;;;0.40;;
33022;SDS011;19390;51.460;5.710;2023-02-26T14:32:33;2.17;;;0.82;;
33022;SDS011;19390;51.460;5.710;2023-02-26T14:35:32;2.47;;;0.43;;
33022;SDS011;19390;51.460;5.710;2023-02-26T14:38:29;2.53;;;0.60;;
33022;SDS011;19390;51.460;5.710;2023-02-26T14:41:04;7.15;;;0.60;;
33022;SDS011;19390;51.460;5.710;2023-02-26T14:43:43;2.20;;;0.70;;
33022;SDS011;19390;51.460;5.710;2023-02-26T14:46:16;1.50;;;0.55;;
33022;SDS011;19390;51.460;5.710;2023-02-26T14:48:43;2.67;;;0.50;;
33022;SDS011;19390;51.460;5.710;2023-02-26T15:07:52;3.92;;;0.88;;
33022;SDS011;19390;51.460;5.710;2023-02-26T15:13:48;5.07;;;0.90;;
33022;SDS011;19390;51.460;5.710;2023-02-26T15:24:28;1.75;;;0.70;;
33022;SDS011;19390;51.460;5.710;2023-02-26T15:26:59;2.40;;;0.60;;
33022;SDS011;19390;51.460;5.710;2023-02-26T15:29:45;4.03;;;0.57;;
33022;SDS011;19390;51.460;5.710;2023-02-26T15:34:58;4.57;;;0.80;;
33022;SDS011;19390;51.460;5.710;2023-02-26T15:37:29;2.45;;;0.70;;
33022;SDS011;19390;51.460;5.710;2023-02-26T15:39:59;2.97;;;0.77;;
33022;SDS011;19390;51.460;5.710;2023-02-26T15:42:29;2.33;;;0.70;;
33022;SDS011;19390;51.460;5.710;2023-02-26T15:44:58;2.45;;;1.27;;
33022;SDS011;19390;51.460;5.710;2023-02-26T15:47:27;3.42;;;0.63;;
33022;SDS011;19390;51.460;5.710;2023-02-26T15:49:54;1.52;;;0.60;;
33022;SDS011;19390;51.460;5.710;2023-02-26T15:52:21;1.58;;;0.88;;
33022;SDS011;19390;51.460;5.710;2023-02-26T15:54:59;1.85;;;0.70;;
33022;SDS011;19390;51.460;5.710;2023-02-26T15:57:28;2.90;;;1.00;;
33022;SDS011;19390;51.460;5.710;2023-02-26T16:00:08;3.05;;;0.60;;
33022;SDS011;19390;51.460;5.710;2023-02-26T16:02:40;4.18;;;1.38;;
33022;SDS011;19390;51.460;5.710;2023-02-26T16:05:07;0.70;;;0.40;;
33022;SDS011;19390;51.460;5.710;2023-02-26T16:07:37;1.80;;;0.70;;
33022;SDS011;19390;51.460;5.710;2023-02-26T16:10:04;2.38;;;0.60;;
33022;SDS011;19390;51.460;5.710;2023-02-26T16:12:44;3.03;;;0.73;;
33022;SDS011;19390;51.460;5.710;2023-02-26T16:15:18;2.97;;;0.90;;
33022;SDS011;19390;51.460;5.710;2023-02-26T16:17:52;1.85;;;0.68;;
33022;SDS011;19390;51.460;5.710;2023-02-26T16:20:20;4.53;;;0.80;;
33022;SDS011;19390;51.460;5.710;2023-02-26T16:25:34;3.42;;;1.00;;
33022;SDS011;19390;51.460;5.710;2023-02-26T16:28:12;1.60;;;0.70;;
33022;SDS011;19390;51.460;5.710;2023-02-26T16:30:41;3.17;;;0.70;;
33022;SDS011;19390;51.460;5.710;2023-02-26T16:33:11;1.92;;;0.70;;
33022;SDS011;19390;51.460;5.710;2023-02-26T16:35:43;2.75;;;0.85;;
33022;SDS011;19390;51.460;5.710;2023-02-26T16:38:21;4.15;;;0.90;;
33022;SDS011;19390;51.460;5.710;2023-02-26T16:40:56;1.15;;;0.65;;
33022;SDS011;19390;51.460;5.710;2023-02-26T16:45:53;2.22;;;0.75;;
33022;SDS011;19390;51.460;5.710;2023-02-26T16:48:28;2.67;;;0.90;;
33022;SDS011;19390;51.460;5.710;2023-02-26T16:50:56;2.75;;;0.80;;
33022;SDS011;19390;51.460;5.710;2023-02-26T16:53:34;2.70;;;0.60;;
33022;SDS011;19390;51.460;5.710;2023-02-26T16:56:13;3.65;;;0.77;;
33022;SDS011;19390;51.460;5.710;2023-02-26T16:58:51;3.83;;;0.70;;
33022;SDS011;19390;51.460;5.710;2023-02-26T17:01:33;2.90;;;0.63;;
33022;SDS011;19390;51.460;5.710;2023-02-26T17:06:30;2.03;;;0.73;;
33022;SDS011;19390;51.460;5.710;2023-02-26T17:08:57;3.13;;;0.70;;
33022;SDS011;19390;51.460;5.710;2023-02-26T17:11:26;5.28;;;0.73;;
33022;SDS011;19390;51.460;5.710;2023-02-26T17:16:51;4.88;;;1.55;;
33022;SDS011;19390;51.460;5.710;2023-02-26T17:19:17;2.00;;;0.65;;
33022;SDS011;19390;51.460;5.710;2023-02-26T17:21:45;4.25;;;1.00;;
33022;SDS011;19390;51.460;5.710;2023-02-26T17:24:17;3.05;;;0.60;;
33022;SDS011;19390;51.460;5.710;2023-02-26T17:27:09;5.88;;;0.82;;
33022;SDS011;19390;51.460;5.710;2023-02-26T17:29:41;3.95;;;0.80;;
33022;SDS011;19390;51.460;5.710;2023-02-26T17:32:14;3.53;;;0.93;;
33022;SDS011;19390;51.460;5.710;2023-02-26T17:34:44;3.50;;;0.90;;
33022;SDS011;19390;51.460;5.710;2023-02-26T17:37:13;3.85;;;0.70;;
33022;SDS011;19390;51.460;5.710;2023-02-26T17:39:39;2.72;;;0.80;;
33022;SDS011;19390;51.460;5.710;2023-02-26T17:42:13;2.30;;;0.77;;
33022;SDS011;19390;51.460;5.710;2023-02-26T17:44:41;5.65;;;0.90;;
33022;SDS011;19390;51.460;5.710;2023-02-26T17:47:18;3.50;;;0.77;;
33022;SDS011;19390;51.460;5.710;2023-02-26T17:49:46;1.70;;;0.70;;
33022;SDS011;19390;51.460;5.710;2023-02-26T17:52:12;2.92;;;0.98;;
33022;SDS011;19390;51.460;5.710;2023-02-26T17:54:38;4.13;;;0.85;;
33022;SDS011;19390;51.460;5.710;2023-02-26T17:57:05;3.15;;;0.80;;
33022;SDS011;19390;51.460;5.710;2023-02-26T17:59:31;4.40;;;0.70;;
33022;SDS011;19390;51.460;5.710;2023-02-26T18:01:58;2.72;;;0.82;;
33022;SDS011;19390;51.460;5.710;2023-02-26T18:04:24;2.22;;;0.80;;
33022;SDS011;19390;51.460;5.710;2023-02-26T18:06:49;3.22;;;1.13;;
33022;SDS011;19390;51.460;5.710;2023-02-26T18:09:15;3.47;;;1.00;;
33022;SDS011;19390;51.460;5.710;2023-02-26T18:11:41;2.95;;;0.90;;
33022;SDS011;19390;51.460;5.710;2023-02-26T18:14:07;3.03;;;1.00;;
33022;SDS011;19390;51.460;5.710;2023-02-26T18:16:36;4.40;;;1.30;;
33022;SDS011;19390;51.460;5.710;2023-02-26T18:19:04;6.63;;;1.88;;
33022;SDS011;19390;51.460;5.710;2023-02-26T18:21:31;3.72;;;1.15;;
33022;SDS011;19390;51.460;5.710;2023-02-26T18:23:57;3.65;;;0.95;;
33022;SDS011;19390;51.460;5.710;2023-02-26T18:26:25;3.15;;;1.30;;
33022;SDS011;19390;51.460;5.710;2023-02-26T18:28:54;3.67;;;1.23;;
33022;SDS011;19390;51.460;5.710;2023-02-26T18:31:21;2.95;;;1.38;;
33022;SDS011;19390;51.460;5.710;2023-02-26T18:33:48;4.35;;;1.48;;
33022;SDS011;19390;51.460;5.710;2023-02-26T18:36:23;5.65;;;1.17;;
33022;SDS011;19390;51.460;5.710;2023-02-26T18:38:57;3.80;;;0.95;;
33022;SDS011;19390;51.460;5.710;2023-02-26T18:41:25;2.53;;;1.15;;